Time;durP1;ratioP1;P1;durP2;ratioP2;P2;SDS_P1;SDS_P2;PMS_P1;PMS_P2;Temp;Humidity;BMP_temperature;BMP_pressure;BME280_temperature;BME280_humidity;BME280_pressure;Samples;Min_cycle;Max_cycle;Signal;HPM_P1;HPM_P2
2021/09/01 00:01:59;;;;;;;10.60;2.15;;;;;;;16.16;43.11;102618.25;5057971;28;20414;-69
2021/09/01 00:04:25;;;;;;;5.22;1.80;;;;;;;16.15;43.57;102618.28;5060090;28;20267;-68
2021/09/01 00:06:51;;;;;;;9.52;1.77;;;;;;;16.12;43.60;102618.41;5060650;28;20028;-68
2021/09/01 00:09:16;;;;;;;7.35;1.77;;;;;;;16.16;43.87;102623.53;5065161;28;20985;-69
2021/09/01 00:11:42;;;;;;;6.80;0.95;;;;;;;16.14;43.97;102625.34;5076419;28;20113;-69
2021/09/01 00:14:08;;;;;;;12.43;2.08;;;;;;;16.13;43.88;102625.41;5057837;28;20492;-69
2021/09/01 00:16:34;;;;;;;13.20;1.73;;;;;;;16.02;44.38;102630.19;5056936;28;20036;-69
2021/09/01 00:19:04;;;;;;;8.68;1.58;;;;;;;16.16;43.96;102639.34;5057762;28;20482;-69
2021/09/01 00:21:30;;;;;;;4.95;1.52;;;;;;;16.11;44.22;102632.53;5062603;28;20640;-69
2021/09/01 00:23:57;;;;;;;5.75;1.50;;;;;;;16.05;44.13;102635.38;5055393;28;20032;-69
2021/09/01 00:26:22;;;;;;;6.70;1.58;;;;;;;16.07;44.18;102638.81;5040790;28;20048;-69
2021/09/01 00:28:48;;;;;;;4.82;1.52;;;;;;;16.04;44.18;102629.25;5039995;28;20587;-69
2021/09/01 00:31:15;;;;;;;7.75;2.08;;;;;;;15.95;44.14;102630.41;5058927;28;20047;-69
2021/09/01 00:33:41;;;;;;;11.70;1.60;;;;;;;15.93;44.16;102631.34;5056640;28;20168;-68
2021/09/01 00:36:07;;;;;;;8.38;2.42;;;;;;;15.95;43.61;102637.44;5058524;28;20039;-68
2021/09/01 00:38:32;;;;;;;6.90;1.83;;;;;;;15.83;44.46;102638.72;5057195;28;20036;-67
2021/09/01 00:40:58;;;;;;;10.05;1.98;;;;;;;15.78;44.35;102636.25;5059738;28;20084;-68
2021/09/01 00:43:24;;;;;;;5.55;1.70;;;;;;;15.76;44.25;102632.78;5040388;28;20037;-68
2021/09/01 00:45:50;;;;;;;9.65;1.67;;;;;;;15.77;44.35;102628.38;5076625;28;20035;-69
2021/09/01 00:48:17;;;;;;;3.65;1.10;;;;;;;15.74;44.37;102636.41;5060784;28;20386;-69
2021/09/01 00:50:43;;;;;;;10.18;1.67;;;;;;;15.81;44.39;102635.28;5054339;28;20082;-68
2021/09/01 00:53:09;;;;;;;6.63;1.65;;;;;;;15.84;44.78;102632.56;5059112;28;20028;-68
2021/09/01 00:55:35;;;;;;;9.15;1.38;;;;;;;15.83;44.69;102624.69;5060641;28;20127;-69
2021/09/01 00:58:00;;;;;;;5.97;2.13;;;;;;;15.83;44.67;102627.31;5056703;28;20119;-68
2021/09/01 01:00:40;;;;;;;9.80;2.33;;;;;;;15.86;44.73;102616.66;5056149;28;20071;-69
2021/09/01 01:03:06;;;;;;;6.63;1.48;;;;;;;15.85;44.77;102620.22;5056915;28;20033;-68
2021/09/01 01:05:32;;;;;;;9.98;2.03;;;;;;;15.96;44.10;102626.84;5058905;28;20048;-68
2021/09/01 01:07:57;;;;;;;8.50;1.40;;;;;;;16.00;44.21;102623.22;5054554;28;20081;-68
2021/09/01 01:10:23;;;;;;;6.90;1.88;;;;;;;15.98;44.42;102625.00;5056385;28;20123;-68
2021/09/01 01:12:48;;;;;;;13.15;2.83;;;;;;;15.95;44.57;102633.03;5057898;28;20063;-68
2021/09/01 01:15:14;;;;;;;10.38;1.60;;;;;;;15.97;44.86;102638.25;5041359;28;20071;-69
2021/09/01 01:17:39;;;;;;;8.45;1.75;;;;;;;15.94;44.62;102633.94;5057590;28;20025;-68
2021/09/01 01:20:05;;;;;;;7.63;2.20;;;;;;;15.89;44.82;102641.16;5059661;28;20417;-67
2021/09/01 01:22:31;;;;;;;7.55;2.28;;;;;;;15.79;45.33;102632.72;5057386;28;20032;-68
2021/09/01 01:25:02;;;;;;;9.07;1.80;;;;;;;15.86;45.59;102635.13;5075998;28;20032;-68
2021/09/01 01:27:31;;;;;;;9.98;1.67;;;;;;;15.90;45.20;102640.22;5056625;28;20036;-67
2021/09/01 01:30:09;;;;;;;7.55;1.45;;;;;;;15.89;45.76;102627.97;5061657;28;20263;-68
2021/09/01 01:32:35;;;;;;;8.65;1.88;;;;;;;15.96;45.43;102626.84;5064019;28;20099;-68
2021/09/01 01:35:00;;;;;;;7.78;2.05;;;;;;;15.93;45.23;102620.78;5059982;28;20074;-67
2021/09/01 01:37:26;;;;;;;8.50;1.67;;;;;;;15.86;45.59;102628.06;5060747;28;20087;-68
2021/09/01 01:39:52;;;;;;;7.55;1.70;;;;;;;15.82;45.91;102625.59;5059749;28;20971;-69
2021/09/01 01:42:17;;;;;;;10.00;2.55;;;;;;;15.82;46.11;102622.94;5055393;28;20021;-68
2021/09/01 01:44:43;;;;;;;6.05;2.08;;;;;;;15.78;46.11;102630.13;5041432;28;20047;-68
2021/09/01 01:47:08;;;;;;;7.75;1.20;;;;;;;15.77;46.13;102620.47;5043437;28;20033;-67
2021/09/01 01:49:34;;;;;;;6.53;1.55;;;;;;;15.79;46.20;102626.56;5062000;28;20056;-69
2021/09/01 01:52:00;;;;;;;10.80;1.75;;;;;;;15.73;46.64;102626.78;5058356;28;20079;-69
2021/09/01 01:54:25;;;;;;;9.77;1.85;;;;;;;15.79;46.63;102630.06;5056346;28;20040;-69
2021/09/01 01:56:51;;;;;;;11.45;1.95;;;;;;;15.80;46.52;102623.88;5062749;28;20040;-68
2021/09/01 01:59:17;;;;;;;10.55;1.58;;;;;;;15.82;46.49;102626.47;5073139;28;20039;-69
2021/09/01 02:01:42;;;;;;;7.25;2.13;;;;;;;15.78;46.71;102624.84;5073792;28;20154;-69
2021/09/01 02:04:08;;;;;;;5.97;1.33;;;;;;;15.81;46.66;102627.38;5043312;28;20033;-68
2021/09/01 02:06:33;;;;;;;8.32;2.35;;;;;;;15.82;46.92;102631.75;5058683;28;20056;-70
2021/09/01 02:08:59;;;;;;;12.68;2.35;;;;;;;15.78;46.46;102625.69;5061849;28;20082;-67
2021/09/01 02:11:24;;;;;;;4.75;1.75;;;;;;;15.78;46.69;102632.75;5058435;28;20036;-68
2021/09/01 02:13:49;;;;;;;14.25;1.92;;;;;;;15.80;46.77;102631.78;5059680;28;20024;-69
2021/09/01 02:16:15;;;;;;;7.43;1.85;;;;;;;15.79;46.59;102637.09;5060897;28;20484;-68
2021/09/01 02:18:40;;;;;;;12.52;1.92;;;;;;;15.77;46.71;102644.19;5058436;28;20134;-69
2021/09/01 02:21:06;;;;;;;14.18;3.38;;;;;;;15.68;46.58;102642.72;5044733;28;20040;-68
2021/09/01 02:23:31;;;;;;;10.07;2.30;;;;;;;15.70;46.71;102642.69;5062341;28;20028;-68
2021/09/01 02:25:57;;;;;;;10.05;2.15;;;;;;;15.68;46.90;102633.97;5061457;28;20119;-70
2021/09/01 02:28:22;;;;;;;9.43;2.47;;;;;;;15.74;46.63;102629.34;5060600;28;20040;-68
2021/09/01 02:30:48;;;;;;;11.65;2.55;;;;;;;15.77;46.66;102633.66;5061384;28;20732;-71
2021/09/01 02:33:14;;;;;;;5.38;1.70;;;;;;;15.83;46.54;102635.22;5063291;28;20045;-69
2021/09/01 02:35:40;;;;;;;13.50;2.42;;;;;;;15.82;46.34;102630.84;5060708;28;20154;-68
2021/09/01 02:38:05;;;;;;;16.33;3.40;;;;;;;15.79;46.45;102634.47;5060923;28;20040;-68
2021/09/01 02:40:32;;;;;;;10.75;2.40;;;;;;;15.72;46.31;102622.41;5059789;28;20028;-68
2021/09/01 02:42:57;;;;;;;14.48;2.50;;;;;;;15.69;46.59;102627.81;5058851;28;20040;-68
2021/09/01 02:45:23;;;;;;;10.15;2.20;;;;;;;15.64;46.73;102627.97;5059095;28;20066;-69
2021/09/01 02:47:49;;;;;;;7.13;1.88;;;;;;;15.68;46.73;102631.34;5061265;28;20024;-70
2021/09/01 02:50:15;;;;;;;6.05;1.50;;;;;;;15.68;46.27;102628.69;5060088;28;20122;-68
2021/09/01 02:52:42;;;;;;;11.25;1.85;;;;;;;15.55;46.66;102636.16;5062402;28;20029;-69
2021/09/01 02:55:08;;;;;;;9.02;1.80;;;;;;;15.63;46.39;102630.63;5061221;28;20035;-70
2021/09/01 02:57:34;;;;;;;14.60;1.70;;;;;;;15.63;46.46;102635.91;5073162;28;20387;-68
2021/09/01 02:59:59;;;;;;;9.38;2.25;;;;;;;15.60;46.30;102623.69;5079330;28;20032;-69
2021/09/01 03:02:25;;;;;;;16.15;3.22;;;;;;;15.67;46.07;102627.84;5060745;28;20043;-69
2021/09/01 03:04:51;;;;;;;5.78;1.60;;;;;;;15.59;45.97;102620.22;5057611;28;20041;-69
2021/09/01 03:07:20;;;;;;;11.02;2.00;;;;;;;15.56;45.82;102620.28;5059228;28;20052;-68
2021/09/01 03:09:45;;;;;;;6.70;1.98;;;;;;;15.55;45.93;102623.84;5060810;28;20059;-68
2021/09/01 03:12:11;;;;;;;11.63;2.63;;;;;;;15.50;45.75;102617.00;5058888;28;20037;-68
2021/09/01 03:14:36;;;;;;;6.07;1.92;;;;;;;15.47;45.69;102622.38;5056992;28;20108;-69
2021/09/01 03:17:02;;;;;;;7.03;2.20;;;;;;;15.46;45.63;102618.00;5057982;28;20041;-68
2021/09/01 03:19:27;;;;;;;6.35;1.83;;;;;;;15.33;45.87;102610.53;5063463;28;20020;-69
2021/09/01 03:21:53;;;;;;;6.00;1.85;;;;;;;15.29;46.03;102615.94;5060615;28;20060;-68
2021/09/01 03:24:43;;;;;;;8.48;1.13;;;;;;;15.34;45.79;102608.75;5060748;28;20075;-69
2021/09/01 03:27:08;;;;;;;9.38;1.58;;;;;;;15.35;45.89;102606.06;5058256;28;20786;-67
2021/09/01 03:29:34;;;;;;;5.13;1.80;;;;;;;15.25;46.13;102603.78;5057958;28;20037;-68
2021/09/01 03:32:00;;;;;;;5.97;1.75;;;;;;;15.30;45.97;102609.75;5058617;28;20025;-68
2021/09/01 03:34:25;;;;;;;7.45;1.52;;;;;;;15.35;45.96;102606.06;5058854;28;20038;-67
2021/09/01 03:36:50;;;;;;;6.50;1.98;;;;;;;15.32;46.41;102602.66;5060583;28;20068;-69
2021/09/01 03:39:16;;;;;;;8.88;2.35;;;;;;;15.29;46.41;102601.00;5057851;28;20048;-68
2021/09/01 03:41:41;;;;;;;11.95;2.00;;;;;;;15.37;46.12;102598.97;5042633;28;20032;-67
2021/09/01 03:44:07;;;;;;;5.50;1.90;;;;;;;15.34;46.41;102598.22;5058281;28;20024;-67
2021/09/01 03:46:32;;;;;;;9.35;2.40;;;;;;;15.35;46.40;102607.84;5061632;28;20436;-68
2021/09/01 03:48:58;;;;;;;4.65;1.20;;;;;;;15.32;46.52;102603.50;5058376;28;20048;-68
2021/09/01 03:51:23;;;;;;;5.70;2.00;;;;;;;15.26;46.73;102605.50;5070504;28;20521;-70
2021/09/01 03:53:49;;;;;;;7.00;1.98;;;;;;;15.23;46.71;102618.78;5060229;28;20021;-68
2021/09/01 03:56:14;;;;;;;6.18;2.38;;;;;;;15.25;46.69;102614.31;5075268;28;20456;-68
2021/09/01 03:58:40;;;;;;;11.30;1.58;;;;;;;15.29;46.62;102621.22;5041533;28;20025;-68
2021/09/01 04:01:05;;;;;;;9.02;1.25;;;;;;;15.28;46.77;102624.75;5059576;28;20124;-68
2021/09/01 04:03:31;;;;;;;7.82;1.35;;;;;;;15.25;47.03;102619.59;5062543;28;20090;-68
2021/09/01 04:05:56;;;;;;;8.25;1.75;;;;;;;15.25;46.98;102622.22;5057591;28;20132;-68
2021/09/01 04:08:22;;;;;;;8.73;1.40;;;;;;;15.38;46.46;102615.66;5057841;28;20040;-69
2021/09/01 04:10:47;;;;;;;7.03;1.67;;;;;;;15.40;46.65;102618.22;5058060;28;20457;-68
2021/09/01 04:13:12;;;;;;;9.05;2.30;;;;;;;15.42;46.40;102617.28;5056231;28;20120;-68
2021/09/01 04:15:38;;;;;;;9.93;3.03;;;;;;;15.39;46.55;102612.09;5056679;28;20040;-68
2021/09/01 04:18:03;;;;;;;7.25;2.60;;;;;;;15.36;46.96;102612.19;5057329;28;20085;-68
2021/09/01 04:20:29;;;;;;;11.60;1.77;;;;;;;15.38;46.78;102615.66;5048877;28;20084;-67
2021/09/01 04:22:54;;;;;;;7.85;2.45;;;;;;;15.35;46.73;102615.75;5060136;28;20024;-68
2021/09/01 04:25:20;;;;;;;4.88;1.50;;;;;;;15.32;46.76;102621.97;5058151;28;20163;-68
2021/09/01 04:27:45;;;;;;;4.47;1.38;;;;;;;15.25;47.31;102619.59;5056779;28;20032;-69
2021/09/01 04:30:11;;;;;;;7.60;1.98;;;;;;;15.20;47.28;102626.75;5058166;28;20437;-68
2021/09/01 04:32:36;;;;;;;4.20;1.70;;;;;;;15.15;47.50;102627.75;5056785;28;20035;-69
2021/09/01 04:35:02;;;;;;;6.40;1.65;;;;;;;15.07;47.53;102627.13;5039058;28;20112;-68
2021/09/01 04:37:28;;;;;;;6.75;1.77;;;;;;;15.05;47.81;102633.34;5038977;28;20105;-68
2021/09/01 04:39:53;;;;;;;7.13;2.10;;;;;;;15.13;47.31;102642.75;5074177;28;20025;-69
2021/09/01 04:42:19;;;;;;;5.65;2.00;;;;;;;15.17;47.22;102636.47;5055388;28;20052;-68
2021/09/01 04:44:44;;;;;;;7.82;1.88;;;;;;;15.12;47.44;102646.25;5059404;28;20040;-68
2021/09/01 04:47:09;;;;;;;6.72;1.75;;;;;;;15.12;47.45;102640.16;5058299;28;20618;-68
2021/09/01 04:49:35;;;;;;;10.35;2.28;;;;;;;15.12;47.45;102642.78;5056654;28;20612;-68
2021/09/01 04:52:00;;;;;;;8.90;2.25;;;;;;;15.16;47.53;102642.63;5056650;28;20064;-67
2021/09/01 04:54:26;;;;;;;9.57;2.35;;;;;;;15.22;47.62;102641.63;5058197;28;20516;-68
2021/09/01 04:56:51;;;;;;;10.35;1.88;;;;;;;15.21;47.49;102637.22;5061774;28;20036;-68
2021/09/01 04:59:17;;;;;;;5.75;1.80;;;;;;;15.18;47.61;102639.97;5061646;28;20043;-69
2021/09/01 05:01:42;;;;;;;7.50;1.70;;;;;;;15.26;47.53;102639.72;5043225;28;20663;-69
2021/09/01 05:04:08;;;;;;;5.00;1.95;;;;;;;15.31;47.35;102645.75;5057533;28;20042;-68
2021/09/01 05:06:33;;;;;;;4.88;1.98;;;;;;;15.25;47.74;102646.78;5057658;28;20605;-69
2021/09/01 05:08:59;;;;;;;5.05;1.77;;;;;;;15.23;47.80;102650.38;5039072;28;20141;-68
2021/09/01 05:11:24;;;;;;;6.53;2.47;;;;;;;15.25;47.93;102651.19;5062651;28;20721;-68
2021/09/01 05:13:50;;;;;;;14.25;3.22;;;;;;;15.21;47.91;102653.00;5072915;28;20033;-69
2021/09/01 05:16:15;;;;;;;8.70;2.22;;;;;;;15.24;48.26;102650.34;5058920;28;20036;-69
2021/09/01 05:18:41;;;;;;;10.40;2.08;;;;;;;15.34;47.98;102658.81;5059339;28;20629;-69
2021/09/01 05:21:11;;;;;;;8.15;1.92;;;;;;;15.37;48.08;102666.59;5060035;28;20060;-69
2021/09/01 05:23:37;;;;;;;6.07;2.55;;;;;;;15.33;48.02;102667.63;5057090;28;20479;-68
2021/09/01 05:26:05;;;;;;;8.07;3.22;;;;;;;15.32;48.25;102668.53;5054508;28;20107;-69
2021/09/01 05:28:34;;;;;;;6.28;1.80;;;;;;;15.47;48.10;102678.56;5060859;28;20196;-69
2021/09/01 05:31:02;;;;;;;11.63;2.78;;;;;;;15.59;48.07;102670.28;5058394;28;20891;-69
2021/09/01 05:33:30;;;;;;;9.73;2.15;;;;;;;15.70;47.49;102679.59;5061920;28;20425;-68
2021/09/01 05:35:56;;;;;;;10.43;2.33;;;;;;;15.82;47.33;102684.47;5060760;28;20037;-68
2021/09/01 05:38:22;;;;;;;9.43;3.50;;;;;;;15.86;47.45;102686.06;5072902;28;20032;-69
2021/09/01 05:40:49;;;;;;;11.88;2.55;;;;;;;15.93;47.06;102689.34;5073259;28;20037;-69
2021/09/01 05:43:17;;;;;;;11.27;2.53;;;;;;;16.05;46.62;102685.50;5074132;28;20029;-68
2021/09/01 05:45:46;;;;;;;7.38;2.42;;;;;;;16.56;46.19;102687.19;5057327;28;20126;-68
2021/09/01 05:48:11;;;;;;;7.28;2.22;;;;;;;16.81;45.30;102689.81;5060449;28;20029;-67
2021/09/01 05:50:39;;;;;;;5.75;2.65;;;;;;;17.05;44.45;102684.50;5060189;28;20375;-68
2021/09/01 05:53:04;;;;;;;10.70;2.45;;;;;;;18.67;41.93;102684.72;5058321;28;20333;-68
2021/09/01 05:55:32;;;;;;;7.43;2.45;;;;;;;19.88;38.39;102689.53;5042459;28;20037;-67
2021/09/01 05:58:02;;;;;;;9.50;2.45;;;;;;;20.69;36.28;102687.06;5058727;28;20068;-67
2021/09/01 06:00:34;;;;;;;9.15;2.60;;;;;;;20.70;36.04;102690.56;5073542;28;20037;-67
2021/09/01 06:03:08;;;;;;;12.52;3.47;;;;;;;21.33;34.57;102681.75;5043664;28;20796;-68
2021/09/01 06:05:37;;;;;;;6.20;2.33;;;;;;;20.71;35.49;102687.84;5057549;28;20486;-69
2021/09/01 06:08:07;;;;;;;9.68;1.55;;;;;;;19.87;37.20;102684.31;5062263;28;20048;-68
2021/09/01 06:10:33;;;;;;;7.40;2.13;;;;;;;19.33;38.05;102686.09;5057298;28;20103;-68
2021/09/01 06:13:10;;;;;;;10.32;2.38;;;;;;;19.84;38.24;102687.13;5041261;28;20043;-68
2021/09/01 06:15:38;;;;;;;8.30;1.85;;;;;;;20.59;36.34;102690.28;5059316;28;20033;-69
2021/09/01 06:18:05;;;;;;;12.00;2.13;;;;;;;20.13;36.42;102697.09;5060120;28;20037;-69
2021/09/01 06:20:31;;;;;;;13.02;1.98;;;;;;;19.56;38.42;102693.81;5056252;28;20028;-69
2021/09/01 06:22:58;;;;;;;7.90;2.00;;;;;;;18.97;39.62;102694.88;5072813;28;20074;-68
2021/09/01 06:25:24;;;;;;;7.75;1.70;;;;;;;18.75;40.21;102695.84;5056230;28;20056;-68
2021/09/01 06:27:50;;;;;;;5.68;1.50;;;;;;;18.43;40.52;102692.88;5071783;28;20021;-68
2021/09/01 06:30:16;;;;;;;9.02;2.17;;;;;;;18.27;40.87;102694.47;5053588;28;20163;-68
2021/09/01 06:32:42;;;;;;;8.93;1.90;;;;;;;18.33;41.05;102699.50;5057608;28;20028;-69
2021/09/01 06:35:08;;;;;;;14.13;2.45;;;;;;;18.51;41.07;102697.81;5056870;28;20062;-68
2021/09/01 06:37:36;;;;;;;10.13;1.95;;;;;;;18.55;40.91;102701.19;5071491;28;20028;-68
2021/09/01 06:40:02;;;;;;;11.50;2.70;;;;;;;18.52;41.16;102704.84;5055272;28;20041;-68
2021/09/01 06:42:27;;;;;;;8.68;1.83;;;;;;;18.74;40.26;102702.06;5056069;28;20495;-69
2021/09/01 06:44:53;;;;;;;9.73;2.15;;;;;;;20.04;37.99;102705.53;5040795;28;20112;-68
2021/09/01 06:47:19;;;;;;;12.07;1.38;;;;;;;20.73;36.17;102706.34;5054765;28;20425;-68
2021/09/01 06:49:44;;;;;;;6.72;2.30;;;;;;;20.52;35.96;102709.22;5054869;28;20052;-68
2021/09/01 06:52:10;;;;;;;10.48;1.95;;;;;;;20.19;36.38;102708.31;5055481;28;20109;-68
2021/09/01 06:54:36;;;;;;;4.75;2.08;;;;;;;20.01;36.60;102708.31;5060666;28;20032;-68
2021/09/01 06:57:01;;;;;;;10.45;2.60;;;;;;;19.91;37.39;102707.09;5062446;28;20047;-69
2021/09/01 06:59:27;;;;;;;13.43;2.75;;;;;;;20.00;36.90;102709.28;5062082;28;20031;-68
2021/09/01 07:01:52;;;;;;;6.47;1.88;;;;;;;20.36;37.19;102705.66;5063193;28;20068;-67
2021/09/01 07:04:21;;;;;;;8.25;2.00;;;;;;;20.66;36.09;102704.94;5068539;28;20044;-68
2021/09/01 07:06:49;;;;;;;7.93;1.75;;;;;;;20.50;36.30;102708.44;5063195;28;20029;-68
2021/09/01 07:09:14;;;;;;;5.25;1.63;;;;;;;20.59;36.91;102711.53;5061312;28;20036;-67
2021/09/01 07:11:40;;;;;;;5.95;1.45;;;;;;;20.73;36.61;102714.34;5057290;28;20032;-67
2021/09/01 07:14:08;;;;;;;4.82;1.92;;;;;;;22.39;33.51;102712.78;5061997;28;20044;-68
2021/09/01 07:16:34;;;;;;;6.78;1.20;;;;;;;22.69;31.78;102714.50;5062663;28;20033;-68
2021/09/01 07:19:00;;;;;;;5.45;2.15;;;;;;;22.71;32.81;102712.59;5063793;28;20024;-68
2021/09/01 07:21:26;;;;;;;9.45;1.63;;;;;;;23.62;31.36;102716.44;5061381;28;20094;-68
2021/09/01 07:23:51;;;;;;;9.93;2.33;;;;;;;24.76;29.18;102713.09;5076507;28;20103;-68
2021/09/01 07:26:17;;;;;;;5.43;1.30;;;;;;;26.32;28.03;102718.38;5064390;28;20068;-68
2021/09/01 07:28:43;;;;;;;7.57;1.33;;;;;;;28.20;24.46;102709.97;5062667;28;20044;-67
2021/09/01 07:31:10;;;;;;;7.93;1.42;;;;;;;29.93;20.59;102709.53;5045283;28;20094;-68
2021/09/01 07:33:36;;;;;;;6.78;1.20;;;;;;;31.12;19.13;102711.53;5059928;28;20033;-68
2021/09/01 07:36:03;;;;;;;5.82;1.60;;;;;;;29.83;20.36;102710.53;5061427;28;20024;-68
2021/09/01 07:38:28;;;;;;;6.00;1.63;;;;;;;27.06;23.67;102719.53;5076465;28;20048;-67
2021/09/01 07:40:54;;;;;;;5.03;1.70;;;;;;;24.70;27.35;102726.88;5048111;28;20090;-68
2021/09/01 07:43:19;;;;;;;7.13;1.90;;;;;;;23.15;29.88;102731.06;5065261;28;20030;-67
2021/09/01 07:45:46;;;;;;;6.43;1.38;;;;;;;22.15;30.89;102729.28;5064481;28;20138;-67
2021/09/01 07:48:15;;;;;;;11.45;1.85;;;;;;;21.30;32.51;102729.81;5060407;28;20040;-68
2021/09/01 07:50:42;;;;;;;9.63;1.95;;;;;;;20.99;33.96;102744.81;5046813;28;20052;-67
2021/09/01 07:53:09;;;;;;;7.57;1.98;;;;;;;20.84;33.93;102740.28;5049795;28;20083;-68
2021/09/01 07:55:34;;;;;;;6.82;1.95;;;;;;;20.59;35.05;102746.94;5081966;28;20041;-68
2021/09/01 07:58:00;;;;;;;4.80;1.73;;;;;;;20.73;33.67;102744.41;5061210;28;20048;-67
2021/09/01 08:00:25;;;;;;;6.47;2.25;;;;;;;20.78;33.76;102746.81;5058215;28;20048;-67
2021/09/01 08:02:52;;;;;;;12.45;2.65;;;;;;;20.94;33.16;102742.41;5063778;28;20036;-68
2021/09/01 08:05:17;;;;;;;10.85;2.08;;;;;;;20.86;33.83;102746.41;5063365;28;20235;-67
2021/09/01 08:07:43;;;;;;;4.20;1.52;;;;;;;21.02;32.61;102751.75;5059496;28;20028;-68
2021/09/01 08:10:09;;;;;;;4.78;1.23;;;;;;;21.39;32.67;102749.69;5063436;28;20051;-67
2021/09/01 08:12:34;;;;;;;5.35;1.63;;;;;;;21.72;31.99;102747.78;5078593;28;20052;-69
2021/09/01 08:15:00;;;;;;;4.18;0.93;;;;;;;22.03;31.29;102745.97;5062392;28;20506;-69
2021/09/01 08:17:25;;;;;;;7.03;1.38;;;;;;;22.75;30.58;102746.09;5057482;28;20084;-67
2021/09/01 08:19:51;;;;;;;10.40;1.63;;;;;;;23.50;28.58;102745.75;5062564;28;20374;-67
2021/09/01 08:22:16;;;;;;;7.65;1.55;;;;;;;25.44;26.06;102750.00;5059511;28;20032;-69
2021/09/01 08:24:43;;;;;;;4.40;1.60;;;;;;;26.18;24.71;102747.13;5061081;28;20398;-67
2021/09/01 08:27:11;;;;;;;3.58;2.00;;;;;;;26.48;24.10;102756.41;5060394;28;20035;-68
2021/09/01 08:29:37;;;;;;;7.55;1.60;;;;;;;25.96;24.67;102747.06;5063942;28;20040;-67
2021/09/01 08:32:04;;;;;;;7.18;1.45;;;;;;;28.30;22.01;102750.34;5060405;28;20051;-68
2021/09/01 08:34:30;;;;;;;5.20;1.33;;;;;;;29.57;20.10;102747.00;5074979;28;20025;-69
2021/09/01 08:36:56;;;;;;;4.68;1.90;;;;;;;30.52;19.60;102744.38;5043998;28;20032;-69
2021/09/01 08:39:22;;;;;;;4.95;1.90;;;;;;;30.98;18.27;102745.25;5060277;28;20044;-68
2021/09/01 08:41:47;;;;;;;7.78;1.70;;;;;;;31.05;18.72;102749.09;5059870;28;20028;-68
2021/09/01 08:44:14;;;;;;;6.72;1.50;;;;;;;30.45;18.72;102764.88;5060915;28;20044;-68
2021/09/01 08:46:42;;;;;;;1.77;0.75;;;;;;;31.15;17.99;102762.50;5064272;28;20040;-67
2021/09/01 08:49:09;;;;;;;7.45;1.83;;;;;;;29.03;20.09;102760.97;5080157;28;20682;-67
2021/09/01 08:51:34;;;;;;;7.20;1.63;;;;;;;26.11;23.50;102769.97;5059983;28;20605;-67
2021/09/01 08:54:00;;;;;;;9.05;1.88;;;;;;;22.77;28.04;102763.69;5075281;28;20029;-69
2021/09/01 08:56:26;;;;;;;8.13;2.00;;;;;;;22.92;28.11;102766.38;5057966;28;20738;-67
2021/09/01 08:58:52;;;;;;;7.57;2.00;;;;;;;25.61;25.31;102766.66;5058666;28;20158;-68
2021/09/01 09:01:37;;;;;;;6.63;1.73;;;;;;;26.45;24.80;102778.09;5064220;28;20037;-69
2021/09/01 09:04:03;;;;;;;9.25;1.98;;;;;;;26.79;23.38;102775.44;5077097;28;20048;-69
2021/09/01 09:07:07;;;;;;;5.90;1.83;;;;;;;27.11;23.05;102770.16;5060347;28;20036;-67
2021/09/01 09:09:35;;;;;;;9.48;1.70;;;;;;;25.70;23.82;102776.66;5041287;28;20182;-70
2021/09/01 09:12:03;;;;;;;5.78;1.60;;;;;;;25.33;24.61;102781.19;5074054;28;20152;-68
2021/09/01 09:14:31;;;;;;;6.35;1.50;;;;;;;25.09;26.23;102773.16;5061596;28;20032;-68
2021/09/01 09:16:59;;;;;;;8.00;1.73;;;;;;;24.91;25.95;102773.50;5057704;28;20698;-68
2021/09/01 09:19:53;;;;;;;6.05;1.98;;;;;;;25.66;24.61;102775.19;5078864;28;20394;-69
2021/09/01 09:22:35;;;;;;;8.68;1.92;;;;;;;27.05;22.92;102754.53;5061587;28;20044;-68
2021/09/01 09:25:11;;;;;;;10.23;1.88;;;;;;;27.51;22.21;102759.66;5059713;28;20032;-69
2021/09/01 09:27:46;;;;;;;8.15;1.10;;;;;;;27.23;22.75;102768.34;5075380;28;20466;-69
2021/09/01 09:30:21;;;;;;;5.40;2.15;;;;;;;26.24;23.91;102765.38;5061809;28;20056;-68
2021/09/01 09:32:54;;;;;;;5.07;1.38;;;;;;;26.68;24.50;102774.47;5062474;28;20119;-67
2021/09/01 09:35:20;;;;;;;5.57;1.77;;;;;;;26.54;23.66;102772.00;5064142;28;20037;-68
2021/09/01 09:37:59;;;;;;;3.17;1.88;;;;;;;26.56;23.99;102767.38;5060701;28;20025;-68
2021/09/01 09:40:25;;;;;;;6.03;1.42;;;;;;;26.16;23.57;102769.66;5063789;28;20055;-67
2021/09/01 09:42:50;;;;;;;5.07;1.05;;;;;;;25.75;24.63;102769.13;5059888;28;20088;-67
2021/09/01 09:45:24;;;;;;;8.70;1.60;;;;;;;25.72;24.73;102771.19;5059507;28;20029;-68
2021/09/01 09:47:55;;;;;;;7.30;1.42;;;;;;;26.71;23.71;102773.34;5065120;28;20118;-68
2021/09/01 09:50:21;;;;;;;4.97;1.47;;;;;;;26.01;24.18;102769.81;5061568;28;20037;-68
2021/09/01 09:52:48;;;;;;;4.38;1.42;;;;;;;25.32;24.53;102783.03;5037472;28;20068;-68
2021/09/01 09:55:19;;;;;;;7.97;2.05;;;;;;;24.52;25.75;102777.16;5065231;28;20545;-67
2021/09/01 09:58:00;;;;;;;4.68;1.88;;;;;;;24.52;26.17;102779.84;5079967;28;20056;-67
2021/09/01 10:00:27;;;;;;;9.32;1.75;;;;;;;25.17;25.03;102778.78;5060521;28;20029;-68
2021/09/01 10:02:52;;;;;;;5.20;1.75;;;;;;;25.36;25.04;102778.31;5061043;28;20025;-69
2021/09/01 10:05:20;;;;;;;5.82;1.45;;;;;;;25.91;24.85;102773.31;5046934;28;20382;-69
2021/09/01 10:07:47;;;;;;;7.75;2.05;;;;;;;26.15;24.32;102771.47;5058806;28;20028;-68
2021/09/01 10:10:13;;;;;;;10.60;2.03;;;;;;;26.01;25.44;102782.38;5060482;28;20033;-68
2021/09/01 10:12:43;;;;;;;11.50;1.92;;;;;;;25.96;26.95;102771.16;5076222;28;20182;-68
2021/09/01 10:15:13;;;;;;;7.32;2.45;;;;;;;25.79;26.37;102777.78;5079981;28;20735;-68
2021/09/01 10:17:42;;;;;;;11.20;2.25;;;;;;;25.77;25.75;102780.56;5060944;28;20041;-68
2021/09/01 10:20:10;;;;;;;5.10;2.08;;;;;;;25.22;27.20;102782.00;5062761;28;20062;-68
2021/09/01 10:22:36;;;;;;;10.60;2.05;;;;;;;25.05;26.65;102773.38;5059529;28;20051;-68
2021/09/01 10:25:02;;;;;;;8.02;1.63;;;;;;;24.84;27.45;102778.41;5075732;28;20033;-68
2021/09/01 10:27:29;;;;;;;5.30;1.63;;;;;;;24.90;26.29;102782.47;5062617;28;20111;-67
2021/09/01 10:29:56;;;;;;;10.13;1.85;;;;;;;24.69;26.64;102786.69;5066045;28;20545;-68
2021/09/01 10:32:25;;;;;;;6.30;1.60;;;;;;;24.34;27.70;102793.47;5063188;28;20390;-68
2021/09/01 10:35:10;;;;;;;10.00;2.15;;;;;;;24.51;27.02;102789.69;5064455;28;20040;-68
2021/09/01 10:37:43;;;;;;;7.22;2.55;;;;;;;25.31;25.62;102786.69;5078842;28;20028;-67
2021/09/01 10:40:33;;;;;;;4.88;1.58;;;;;;;26.45;23.86;102778.94;5078889;28;20046;-68
2021/09/01 10:43:16;;;;;;;7.15;1.90;;;;;;;26.74;23.76;102782.97;5066337;28;20817;-69
2021/09/01 10:45:47;;;;;;;8.77;1.80;;;;;;;26.21;24.09;102776.34;5063468;28;20029;-68
2021/09/01 10:48:13;;;;;;;7.72;1.67;;;;;;;25.80;25.03;102782.16;5051562;28;20144;-68
2021/09/01 10:50:43;;;;;;;9.30;1.73;;;;;;;25.79;25.90;102780.47;5063076;28;20033;-68
2021/09/01 10:53:19;;;;;;;7.78;2.00;;;;;;;26.49;25.27;102790.25;5066129;28;20040;-68
2021/09/01 10:55:58;;;;;;;6.57;1.20;;;;;;;25.92;25.79;102785.75;5060794;28;20036;-68
2021/09/01 10:58:40;;;;;;;8.45;2.22;;;;;;;25.11;26.39;102785.47;5065546;28;20090;-68
2021/09/01 11:01:22;;;;;;;13.07;2.03;;;;;;;24.36;27.51;102786.22;5066689;28;20071;-68
2021/09/01 11:04:01;;;;;;;6.78;1.77;;;;;;;24.39;27.68;102794.03;5063402;28;20027;-69
2021/09/01 11:06:35;;;;;;;10.00;2.30;;;;;;;24.28;27.95;102785.03;5063646;28;20580;-68
2021/09/01 11:09:12;;;;;;;7.25;2.22;;;;;;;24.14;27.75;102778.81;5078141;28;20032;-68
2021/09/01 11:11:52;;;;;;;5.53;1.33;;;;;;;24.65;27.21;102784.22;5084749;28;20032;-68
2021/09/01 11:14:40;;;;;;;5.53;1.40;;;;;;;26.21;25.45;102787.06;5066705;28;20104;-68
2021/09/01 11:17:10;;;;;;;7.13;1.67;;;;;;;26.02;24.99;102787.63;5065459;28;20121;-67
2021/09/01 11:19:38;;;;;;;7.32;1.38;;;;;;;25.04;25.47;102781.53;5061124;28;20048;-67
2021/09/01 11:22:09;;;;;;;5.05;1.80;;;;;;;24.14;27.44;102781.50;5063822;28;20021;-70
2021/09/01 11:25:12;;;;;;;6.00;1.27;;;;;;;24.04;28.16;102783.09;5049881;28;20390;-68
2021/09/01 11:27:50;;;;;;;7.90;2.05;;;;;;;23.92;29.08;102783.91;5052513;28;20059;-68